sensor_id;sensor_type;location;lat;lon;timestamp;P1;durP1;ratioP1;P2;durP2;ratioP2
19341;SDS011;9807;48.258;12.690;2023-09-19T00:01:41;6.90;;;2.37;;
19341;SDS011;9807;48.258;12.690;2023-09-19T00:04:10;9.97;;;2.50;;
19341;SDS011;9807;48.258;12.690;2023-09-19T00:06:37;3.10;;;1.70;;
19341;SDS011;9807;48.258;12.690;2023-09-19T00:09:04;1.73;;;1.40;;
19341;SDS011;9807;48.258;12.690;2023-09-19T00:11:30;1.87;;;1.70;;
19341;SDS011;9807;48.258;12.690;2023-09-19T00:13:56;1.20;;;1.07;;
19341;SDS011;9807;48.258;12.690;2023-09-19T00:16:25;1.40;;;1.10;;
19341;SDS011;9807;48.258;12.690;2023-09-19T00:18:52;0.90;;;0.80;;
19341;SDS011;9807;48.258;12.690;2023-09-19T00:21:18;2.87;;;1.43;;
19341;SDS011;9807;48.258;12.690;2023-09-19T00:23:47;3.13;;;1.13;;
19341;SDS011;9807;48.258;12.690;2023-09-19T00:26:12;2.07;;;1.20;;
19341;SDS011;9807;48.258;12.690;2023-09-19T00:28:38;2.73;;;1.40;;
19341;SDS011;9807;48.258;12.690;2023-09-19T00:31:04;1.20;;;1.10;;
19341;SDS011;9807;48.258;12.690;2023-09-19T00:33:33;5.57;;;1.97;;
19341;SDS011;9807;48.258;12.690;2023-09-19T00:35:59;3.53;;;1.30;;
19341;SDS011;9807;48.258;12.690;2023-09-19T00:38:27;1.63;;;1.10;;
19341;SDS011;9807;48.258;12.690;2023-09-19T00:40:53;2.83;;;1.10;;
19341;SDS011;9807;48.258;12.690;2023-09-19T00:43:20;1.17;;;1.07;;
19341;SDS011;9807;48.258;12.690;2023-09-19T00:45:48;1.97;;;1.33;;
19341;SDS011;9807;48.258;12.690;2023-09-19T00:48:16;2.03;;;1.37;;
19341;SDS011;9807;48.258;12.690;2023-09-19T00:50:43;7.53;;;1.70;;
19341;SDS011;9807;48.258;12.690;2023-09-19T00:53:13;3.33;;;1.50;;
19341;SDS011;9807;48.258;12.690;2023-09-19T00:55:41;5.43;;;1.90;;
19341;SDS011;9807;48.258;12.690;2023-09-19T00:58:07;3.30;;;1.90;;
19341;SDS011;9807;48.258;12.690;2023-09-19T01:00:35;7.13;;;1.90;;
19341;SDS011;9807;48.258;12.690;2023-09-19T01:03:01;2.87;;;1.60;;
19341;SDS011;9807;48.258;12.690;2023-09-19T01:05:28;2.27;;;1.50;;
19341;SDS011;9807;48.258;12.690;2023-09-19T01:07:55;3.83;;;1.57;;
19341;SDS011;9807;48.258;12.690;2023-09-19T01:10:21;3.37;;;1.10;;
19341;SDS011;9807;48.258;12.690;2023-09-19T01:15:41;3.70;;;1.43;;
19341;SDS011;9807;48.258;12.690;2023-09-19T01:21:05;1.30;;;1.13;;
19341;SDS011;9807;48.258;12.690;2023-09-19T01:31:19;1.07;;;0.97;;
19341;SDS011;9807;48.258;12.690;2023-09-19T01:36:26;3.97;;;1.20;;
19341;SDS011;9807;48.258;12.690;2023-09-19T01:38:57;5.43;;;1.50;;
19341;SDS011;9807;48.258;12.690;2023-09-19T01:41:38;2.50;;;1.33;;
19341;SDS011;9807;48.258;12.690;2023-09-19T01:44:09;3.87;;;2.00;;
19341;SDS011;9807;48.258;12.690;2023-09-19T01:46:43;2.77;;;1.50;;
19341;SDS011;9807;48.258;12.690;2023-09-19T01:51:53;1.83;;;1.13;;
19341;SDS011;9807;48.258;12.690;2023-09-19T01:54:33;3.03;;;1.13;;
19341;SDS011;9807;48.258;12.690;2023-09-19T01:57:06;3.50;;;1.70;;
19341;SDS011;9807;48.258;12.690;2023-09-19T01:59:45;2.60;;;1.10;;
19341;SDS011;9807;48.258;12.690;2023-09-19T02:02:16;0.93;;;0.93;;
19341;SDS011;9807;48.258;12.690;2023-09-19T02:04:43;1.63;;;1.43;;
19341;SDS011;9807;48.258;12.690;2023-09-19T02:07:09;1.97;;;1.17;;
19341;SDS011;9807;48.258;12.690;2023-09-19T02:09:35;2.40;;;1.70;;
19341;SDS011;9807;48.258;12.690;2023-09-19T02:12:02;2.10;;;1.20;;
19341;SDS011;9807;48.258;12.690;2023-09-19T02:14:30;6.17;;;2.50;;
19341;SDS011;9807;48.258;12.690;2023-09-19T02:16:57;3.40;;;1.90;;
19341;SDS011;9807;48.258;12.690;2023-09-19T02:19:23;3.03;;;2.10;;
19341;SDS011;9807;48.258;12.690;2023-09-19T02:21:48;7.53;;;2.50;;
19341;SDS011;9807;48.258;12.690;2023-09-19T02:24:14;7.17;;;2.30;;
19341;SDS011;9807;48.258;12.690;2023-09-19T02:26:40;6.17;;;2.30;;
19341;SDS011;9807;48.258;12.690;2023-09-19T02:29:06;5.07;;;2.17;;
19341;SDS011;9807;48.258;12.690;2023-09-19T02:31:32;9.33;;;2.50;;
19341;SDS011;9807;48.258;12.690;2023-09-19T02:33:57;3.47;;;1.60;;
19341;SDS011;9807;48.258;12.690;2023-09-19T02:36:24;4.53;;;2.47;;
19341;SDS011;9807;48.258;12.690;2023-09-19T02:38:51;4.80;;;1.80;;
19341;SDS011;9807;48.258;12.690;2023-09-19T02:41:16;7.70;;;2.60;;
19341;SDS011;9807;48.258;12.690;2023-09-19T02:43:42;2.73;;;2.00;;
19341;SDS011;9807;48.258;12.690;2023-09-19T02:46:08;1.57;;;1.40;;
19341;SDS011;9807;48.258;12.690;2023-09-19T02:48:34;6.87;;;2.40;;
19341;SDS011;9807;48.258;12.690;2023-09-19T02:51:01;4.73;;;2.17;;
19341;SDS011;9807;48.258;12.690;2023-09-19T02:53:29;5.07;;;2.30;;
19341;SDS011;9807;48.258;12.690;2023-09-19T02:55:57;4.57;;;2.80;;
19341;SDS011;9807;48.258;12.690;2023-09-19T02:58:24;2.83;;;2.00;;
19341;SDS011;9807;48.258;12.690;2023-09-19T03:00:50;4.07;;;2.30;;
19341;SDS011;9807;48.258;12.690;2023-09-19T03:03:16;5.57;;;2.50;;
19341;SDS011;9807;48.258;12.690;2023-09-19T03:05:42;5.53;;;2.50;;
19341;SDS011;9807;48.258;12.690;2023-09-19T03:08:12;6.70;;;2.70;;
19341;SDS011;9807;48.258;12.690;2023-09-19T03:10:42;5.17;;;2.20;;
19341;SDS011;9807;48.258;12.690;2023-09-19T03:13:07;10.00;;;3.60;;
19341;SDS011;9807;48.258;12.690;2023-09-19T03:15:35;6.80;;;3.30;;
19341;SDS011;9807;48.258;12.690;2023-09-19T03:18:04;9.53;;;5.00;;
19341;SDS011;9807;48.258;12.690;2023-09-19T03:23:46;10.30;;;4.47;;
19341;SDS011;9807;48.258;12.690;2023-09-19T03:26:13;10.13;;;4.40;;
19341;SDS011;9807;48.258;12.690;2023-09-19T03:28:42;9.27;;;3.83;;
19341;SDS011;9807;48.258;12.690;2023-09-19T03:31:09;7.13;;;3.10;;
19341;SDS011;9807;48.258;12.690;2023-09-19T03:33:35;4.70;;;2.80;;
19341;SDS011;9807;48.258;12.690;2023-09-19T03:36:02;6.93;;;3.67;;
19341;SDS011;9807;48.258;12.690;2023-09-19T03:38:32;4.50;;;3.00;;
19341;SDS011;9807;48.258;12.690;2023-09-19T03:40:59;3.70;;;2.40;;
19341;SDS011;9807;48.258;12.690;2023-09-19T03:43:26;7.10;;;2.83;;
19341;SDS011;9807;48.258;12.690;2023-09-19T03:45:52;6.33;;;2.50;;
19341;SDS011;9807;48.258;12.690;2023-09-19T03:48:19;3.03;;;2.00;;
19341;SDS011;9807;48.258;12.690;2023-09-19T03:50:46;6.87;;;1.80;;
19341;SDS011;9807;48.258;12.690;2023-09-19T03:53:12;4.37;;;2.37;;
19341;SDS011;9807;48.258;12.690;2023-09-19T03:55:38;6.37;;;2.30;;
19341;SDS011;9807;48.258;12.690;2023-09-19T03:58:04;2.07;;;1.87;;
19341;SDS011;9807;48.258;12.690;2023-09-19T04:00:31;3.47;;;2.03;;
19341;SDS011;9807;48.258;12.690;2023-09-19T04:02:59;2.73;;;2.00;;
19341;SDS011;9807;48.258;12.690;2023-09-19T04:05:27;6.43;;;2.20;;
19341;SDS011;9807;48.258;12.690;2023-09-19T04:07:53;6.50;;;2.40;;
19341;SDS011;9807;48.258;12.690;2023-09-19T04:10:18;3.50;;;2.10;;
19341;SDS011;9807;48.258;12.690;2023-09-19T04:12:51;8.57;;;2.60;;
19341;SDS011;9807;48.258;12.690;2023-09-19T04:15:21;3.70;;;2.37;;
19341;SDS011;9807;48.258;12.690;2023-09-19T04:17:50;7.03;;;2.37;;
19341;SDS011;9807;48.258;12.690;2023-09-19T04:20:16;5.20;;;2.40;;
19341;SDS011;9807;48.258;12.690;2023-09-19T04:22:45;4.70;;;2.20;;
19341;SDS011;9807;48.258;12.690;2023-09-19T04:25:11;5.00;;;2.40;;
19341;SDS011;9807;48.258;12.690;2023-09-19T04:27:37;4.17;;;2.30;;
19341;SDS011;9807;48.258;12.690;2023-09-19T04:30:03;2.73;;;2.27;;
19341;SDS011;9807;48.258;12.690;2023-09-19T04:32:35;4.10;;;2.43;;
19341;SDS011;9807;48.258;12.690;2023-09-19T04:35:01;5.90;;;2.20;;
19341;SDS011;9807;48.258;12.690;2023-09-19T04:37:30;5.90;;;2.93;;
19341;SDS011;9807;48.258;12.690;2023-09-19T04:39:56;6.43;;;3.20;;
19341;SDS011;9807;48.258;12.690;2023-09-19T04:42:22;9.13;;;3.07;;
19341;SDS011;9807;48.258;12.690;2023-09-19T04:44:49;10.07;;;3.33;;
19341;SDS011;9807;48.258;12.690;2023-09-19T04:47:18;8.30;;;3.30;;
19341;SDS011;9807;48.258;12.690;2023-09-19T04:49:44;7.60;;;2.60;;
19341;SDS011;9807;48.258;12.690;2023-09-19T04:52:10;8.50;;;2.40;;
19341;SDS011;9807;48.258;12.690;2023-09-19T04:54:35;7.57;;;2.90;;
19341;SDS011;9807;48.258;12.690;2023-09-19T04:57:01;9.43;;;2.47;;
19341;SDS011;9807;48.258;12.690;2023-09-19T04:59:27;6.57;;;2.90;;
19341;SDS011;9807;48.258;12.690;2023-09-19T05:01:54;8.80;;;2.70;;
19341;SDS011;9807;48.258;12.690;2023-09-19T05:04:21;6.00;;;2.50;;
19341;SDS011;9807;48.258;12.690;2023-09-19T05:06:46;9.90;;;3.70;;
19341;SDS011;9807;48.258;12.690;2023-09-19T05:09:12;5.80;;;2.70;;
19341;SDS011;9807;48.258;12.690;2023-09-19T05:11:38;5.90;;;2.57;;
19341;SDS011;9807;48.258;12.690;2023-09-19T05:14:04;6.83;;;2.53;;
19341;SDS011;9807;48.258;12.690;2023-09-19T05:16:30;5.50;;;2.57;;
19341;SDS011;9807;48.258;12.690;2023-09-19T05:18:59;8.30;;;3.30;;
19341;SDS011;9807;48.258;12.690;2023-09-19T05:21:25;7.97;;;3.30;;
19341;SDS011;9807;48.258;12.690;2023-09-19T05:23:55;6.63;;;2.30;;
19341;SDS011;9807;48.258;12.690;2023-09-19T05:26:22;5.67;;;2.23;;
19341;SDS011;9807;48.258;12.690;2023-09-19T05:28:47;4.57;;;2.43;;
19341;SDS011;9807;48.258;12.690;2023-09-19T05:31:13;4.00;;;2.50;;
19341;SDS011;9807;48.258;12.690;2023-09-19T05:33:40;5.97;;;2.50;;
19341;SDS011;9807;48.258;12.690;2023-09-19T05:36:06;3.23;;;2.20;;
19341;SDS011;9807;48.258;12.690;2023-09-19T05:38:35;10.87;;;2.30;;
19341;SDS011;9807;48.258;12.690;2023-09-19T05:41:00;6.37;;;2.37;;
19341;SDS011;9807;48.258;12.690;2023-09-19T05:43:27;9.30;;;2.20;;
19341;SDS011;9807;48.258;12.690;2023-09-19T05:45:52;5.30;;;2.17;;
19341;SDS011;9807;48.258;12.690;2023-09-19T05:48:21;2.37;;;2.10;;
19341;SDS011;9807;48.258;12.690;2023-09-19T05:50:47;4.50;;;2.40;;
19341;SDS011;9807;48.258;12.690;2023-09-19T05:53:13;4.50;;;2.23;;
19341;SDS011;9807;48.258;12.690;2023-09-19T05:55:40;2.73;;;2.10;;
19341;SDS011;9807;48.258;12.690;2023-09-19T05:58:06;7.47;;;2.33;;
19341;SDS011;9807;48.258;12.690;2023-09-19T06:00:32;2.23;;;2.00;;
19341;SDS011;9807;48.258;12.690;2023-09-19T06:02:58;2.33;;;1.97;;
19341;SDS011;9807;48.258;12.690;2023-09-19T06:05:26;3.13;;;2.27;;
19341;SDS011;9807;48.258;12.690;2023-09-19T06:07:52;4.90;;;2.40;;
19341;SDS011;9807;48.258;12.690;2023-09-19T06:10:19;5.13;;;2.30;;
19341;SDS011;9807;48.258;12.690;2023-09-19T06:12:48;6.43;;;1.90;;
19341;SDS011;9807;48.258;12.690;2023-09-19T06:15:14;4.80;;;1.97;;
19341;SDS011;9807;48.258;12.690;2023-09-19T06:18:14;4.17;;;2.07;;
19341;SDS011;9807;48.258;12.690;2023-09-19T06:20:37;2.70;;;1.80;;
19341;SDS011;9807;48.258;12.690;2023-09-19T06:23:03;3.20;;;2.00;;
19341;SDS011;9807;48.258;12.690;2023-09-19T06:25:29;7.07;;;2.20;;
19341;SDS011;9807;48.258;12.690;2023-09-19T06:27:55;3.97;;;2.10;;
19341;SDS011;9807;48.258;12.690;2023-09-19T06:30:22;5.13;;;2.83;;
19341;SDS011;9807;48.258;12.690;2023-09-19T06:32:49;8.87;;;2.00;;
19341;SDS011;9807;48.258;12.690;2023-09-19T06:35:15;15.63;;;2.50;;
19341;SDS011;9807;48.258;12.690;2023-09-19T06:37:41;5.60;;;2.17;;
19341;SDS011;9807;48.258;12.690;2023-09-19T06:40:12;3.80;;;2.20;;
19341;SDS011;9807;48.258;12.690;2023-09-19T06:42:39;3.03;;;1.90;;
19341;SDS011;9807;48.258;12.690;2023-09-19T06:45:06;3.83;;;1.90;;
19341;SDS011;9807;48.258;12.690;2023-09-19T06:47:32;4.43;;;2.20;;
19341;SDS011;9807;48.258;12.690;2023-09-19T06:49:58;6.00;;;2.13;;
19341;SDS011;9807;48.258;12.690;2023-09-19T06:52:23;5.77;;;2.10;;
19341;SDS011;9807;48.258;12.690;2023-09-19T06:54:51;3.20;;;1.93;;
19341;SDS011;9807;48.258;12.690;2023-09-19T06:57:17;4.03;;;2.00;;
19341;SDS011;9807;48.258;12.690;2023-09-19T06:59:43;5.83;;;1.90;;
19341;SDS011;9807;48.258;12.690;2023-09-19T07:02:10;3.90;;;2.10;;
19341;SDS011;9807;48.258;12.690;2023-09-19T07:04:36;6.53;;;2.17;;
19341;SDS011;9807;48.258;12.690;2023-09-19T07:07:01;4.27;;;1.70;;
19341;SDS011;9807;48.258;12.690;2023-09-19T07:09:27;4.00;;;1.70;;
19341;SDS011;9807;48.258;12.690;2023-09-19T07:11:53;4.23;;;1.70;;
19341;SDS011;9807;48.258;12.690;2023-09-19T07:14:19;3.97;;;1.80;;
19341;SDS011;9807;48.258;12.690;2023-09-19T07:16:45;4.47;;;1.70;;
19341;SDS011;9807;48.258;12.690;2023-09-19T07:19:12;5.53;;;1.80;;
19341;SDS011;9807;48.258;12.690;2023-09-19T07:21:40;2.97;;;1.90;;
19341;SDS011;9807;48.258;12.690;2023-09-19T07:24:05;5.77;;;2.00;;
19341;SDS011;9807;48.258;12.690;2023-09-19T07:26:33;5.00;;;2.17;;
19341;SDS011;9807;48.258;12.690;2023-09-19T07:28:59;4.73;;;1.73;;
19341;SDS011;9807;48.258;12.690;2023-09-19T07:31:27;4.57;;;1.90;;
19341;SDS011;9807;48.258;12.690;2023-09-19T07:33:54;4.27;;;1.87;;
19341;SDS011;9807;48.258;12.690;2023-09-19T07:36:20;5.17;;;1.67;;
19341;SDS011;9807;48.258;12.690;2023-09-19T07:38:46;4.40;;;1.70;;
19341;SDS011;9807;48.258;12.690;2023-09-19T07:41:13;3.70;;;1.80;;
19341;SDS011;9807;48.258;12.690;2023-09-19T07:43:39;3.73;;;1.30;;
19341;SDS011;9807;48.258;12.690;2023-09-19T07:46:08;1.63;;;1.50;;
19341;SDS011;9807;48.258;12.690;2023-09-19T07:48:36;3.37;;;1.30;;
19341;SDS011;9807;48.258;12.690;2023-09-19T07:51:06;3.37;;;1.63;;
19341;SDS011;9807;48.258;12.690;2023-09-19T07:53:34;2.90;;;1.40;;
19341;SDS011;9807;48.258;12.690;2023-09-19T07:56:07;4.63;;;1.97;;
19341;SDS011;9807;48.258;12.690;2023-09-19T07:58:35;3.80;;;1.60;;
19341;SDS011;9807;48.258;12.690;2023-09-19T08:01:07;2.80;;;1.60;;
19341;SDS011;9807;48.258;12.690;2023-09-19T08:03:34;4.63;;;1.53;;
19341;SDS011;9807;48.258;12.690;2023-09-19T08:06:05;2.60;;;1.37;;
19341;SDS011;9807;48.258;12.690;2023-09-19T08:08:32;2.13;;;1.63;;
19341;SDS011;9807;48.258;12.690;2023-09-19T08:10:59;1.73;;;1.47;;
19341;SDS011;9807;48.258;12.690;2023-09-19T08:13:26;7.10;;;1.77;;
19341;SDS011;9807;48.258;12.690;2023-09-19T08:15:52;3.23;;;1.80;;
19341;SDS011;9807;48.258;12.690;2023-09-19T08:18:18;3.00;;;1.43;;
19341;SDS011;9807;48.258;12.690;2023-09-19T08:20:49;3.13;;;1.50;;
19341;SDS011;9807;48.258;12.690;2023-09-19T08:23:16;3.10;;;1.50;;
19341;SDS011;9807;48.258;12.690;2023-09-19T08:25:43;2.10;;;1.43;;
19341;SDS011;9807;48.258;12.690;2023-09-19T08:28:08;3.13;;;1.40;;
19341;SDS011;9807;48.258;12.690;2023-09-19T08:30:37;5.03;;;1.63;;
19341;SDS011;9807;48.258;12.690;2023-09-19T08:33:05;3.80;;;1.40;;
19341;SDS011;9807;48.258;12.690;2023-09-19T08:35:32;1.83;;;1.40;;
19341;SDS011;9807;48.258;12.690;2023-09-19T08:37:58;4.67;;;1.60;;
19341;SDS011;9807;48.258;12.690;2023-09-19T08:40:32;3.20;;;1.47;;
19341;SDS011;9807;48.258;12.690;2023-09-19T08:43:00;3.10;;;1.60;;
19341;SDS011;9807;48.258;12.690;2023-09-19T08:45:26;3.37;;;1.40;;
19341;SDS011;9807;48.258;12.690;2023-09-19T08:50:31;7.30;;;1.50;;
19341;SDS011;9807;48.258;12.690;2023-09-19T08:53:06;5.30;;;1.80;;
19341;SDS011;9807;48.258;12.690;2023-09-19T08:55:38;5.13;;;1.37;;
19341;SDS011;9807;48.258;12.690;2023-09-19T08:58:08;2.80;;;1.33;;
19341;SDS011;9807;48.258;12.690;2023-09-19T09:00:35;5.57;;;1.40;;
19341;SDS011;9807;48.258;12.690;2023-09-19T09:03:01;1.80;;;1.20;;
19341;SDS011;9807;48.258;12.690;2023-09-19T09:05:29;2.77;;;1.40;;
19341;SDS011;9807;48.258;12.690;2023-09-19T09:07:57;3.90;;;1.30;;
19341;SDS011;9807;48.258;12.690;2023-09-19T09:10:24;3.60;;;1.27;;
19341;SDS011;9807;48.258;12.690;2023-09-19T09:12:57;1.60;;;1.00;;
19341;SDS011;9807;48.258;12.690;2023-09-19T09:15:24;3.20;;;1.20;;
19341;SDS011;9807;48.258;12.690;2023-09-19T09:17:50;4.73;;;1.40;;
19341;SDS011;9807;48.258;12.690;2023-09-19T09:20:19;7.73;;;1.63;;
19341;SDS011;9807;48.258;12.690;2023-09-19T09:22:52;2.77;;;1.27;;
19341;SDS011;9807;48.258;12.690;2023-09-19T09:25:23;4.00;;;1.20;;
19341;SDS011;9807;48.258;12.690;2023-09-19T09:28:12;1.93;;;1.10;;
19341;SDS011;9807;48.258;12.690;2023-09-19T09:30:45;2.13;;;1.10;;
19341;SDS011;9807;48.258;12.690;2023-09-19T09:33:11;4.67;;;1.13;;
19341;SDS011;9807;48.258;12.690;2023-09-19T09:38:21;2.57;;;1.30;;
19341;SDS011;9807;48.258;12.690;2023-09-19T09:40:53;3.30;;;1.17;;
19341;SDS011;9807;48.258;12.690;2023-09-19T09:48:46;2.10;;;1.27;;
19341;SDS011;9807;48.258;12.690;2023-09-19T09:51:44;4.77;;;1.30;;
19341;SDS011;9807;48.258;12.690;2023-09-19T09:54:28;1.83;;;1.20;;
19341;SDS011;9807;48.258;12.690;2023-09-19T09:57:04;3.50;;;1.30;;
19341;SDS011;9807;48.258;12.690;2023-09-19T09:59:45;8.00;;;1.30;;
19341;SDS011;9807;48.258;12.690;2023-09-19T10:02:12;3.23;;;1.17;;
19341;SDS011;9807;48.258;12.690;2023-09-19T10:05:11;3.50;;;1.13;;
19341;SDS011;9807;48.258;12.690;2023-09-19T10:07:58;13.57;;;7.33;;
19341;SDS011;9807;48.258;12.690;2023-09-19T10:10:38;6.00;;;2.57;;
19341;SDS011;9807;48.258;12.690;2023-09-19T10:13:11;2.00;;;1.00;;
19341;SDS011;9807;48.258;12.690;2023-09-19T10:15:43;1.90;;;1.03;;
19341;SDS011;9807;48.258;12.690;2023-09-19T10:18:22;1.47;;;0.93;;
19341;SDS011;9807;48.258;12.690;2023-09-19T10:20:51;2.03;;;1.00;;
19341;SDS011;9807;48.258;12.690;2023-09-19T10:23:17;2.97;;;1.20;;
19341;SDS011;9807;48.258;12.690;2023-09-19T10:25:49;1.40;;;1.10;;
19341;SDS011;9807;48.258;12.690;2023-09-19T10:28:16;2.17;;;1.10;;
19341;SDS011;9807;48.258;12.690;2023-09-19T10:30:47;6.47;;;1.17;;
19341;SDS011;9807;48.258;12.690;2023-09-19T10:33:15;1.23;;;1.00;;
19341;SDS011;9807;48.258;12.690;2023-09-19T10:35:43;2.03;;;0.93;;
19341;SDS011;9807;48.258;12.690;2023-09-19T10:38:11;1.23;;;0.90;;
19341;SDS011;9807;48.258;12.690;2023-09-19T10:40:39;1.33;;;0.90;;
19341;SDS011;9807;48.258;12.690;2023-09-19T10:43:12;2.10;;;0.93;;
19341;SDS011;9807;48.258;12.690;2023-09-19T10:45:49;2.20;;;1.13;;
19341;SDS011;9807;48.258;12.690;2023-09-19T10:48:17;1.53;;;1.10;;
19341;SDS011;9807;48.258;12.690;2023-09-19T10:53:24;3.20;;;1.10;;
19341;SDS011;9807;48.258;12.690;2023-09-19T10:55:57;1.93;;;1.07;;
19341;SDS011;9807;48.258;12.690;2023-09-19T10:58:31;1.70;;;1.00;;
19341;SDS011;9807;48.258;12.690;2023-09-19T11:01:03;1.10;;;0.90;;
19341;SDS011;9807;48.258;12.690;2023-09-19T11:03:37;1.40;;;0.93;;
19341;SDS011;9807;48.258;12.690;2023-09-19T11:06:17;2.03;;;1.17;;
19341;SDS011;9807;48.258;12.690;2023-09-19T11:09:00;2.10;;;1.00;;
19341;SDS011;9807;48.258;12.690;2023-09-19T11:11:50;3.33;;;1.00;;
19341;SDS011;9807;48.258;12.690;2023-09-19T11:30:49;3.03;;;1.10;;
19341;SDS011;9807;48.258;12.690;2023-09-19T11:33:32;1.73;;;1.10;;
19341;SDS011;9807;48.258;12.690;2023-09-19T11:46:30;2.83;;;1.63;;
19341;SDS011;9807;48.258;12.690;2023-09-19T11:49:07;1.40;;;1.10;;
19341;SDS011;9807;48.258;12.690;2023-09-19T11:51:42;1.87;;;1.10;;
19341;SDS011;9807;48.258;12.690;2023-09-19T11:54:12;1.90;;;1.07;;
19341;SDS011;9807;48.258;12.690;2023-09-19T11:56:53;3.17;;;1.10;;
19341;SDS011;9807;48.258;12.690;2023-09-19T11:59:22;1.60;;;1.20;;
19341;SDS011;9807;48.258;12.690;2023-09-19T12:01:53;1.43;;;1.23;;
19341;SDS011;9807;48.258;12.690;2023-09-19T12:04:33;2.60;;;1.43;;
19341;SDS011;9807;48.258;12.690;2023-09-19T12:07:09;1.93;;;1.30;;
19341;SDS011;9807;48.258;12.690;2023-09-19T12:12:09;3.40;;;1.43;;
19341;SDS011;9807;48.258;12.690;2023-09-19T12:14:37;2.13;;;1.30;;
19341;SDS011;9807;48.258;12.690;2023-09-19T12:17:06;3.33;;;1.30;;
19341;SDS011;9807;48.258;12.690;2023-09-19T12:19:31;2.00;;;1.40;;
19341;SDS011;9807;48.258;12.690;2023-09-19T12:21:58;5.23;;;1.47;;
19341;SDS011;9807;48.258;12.690;2023-09-19T12:24:30;2.70;;;1.40;;
19341;SDS011;9807;48.258;12.690;2023-09-19T12:27:00;1.67;;;1.37;;
19341;SDS011;9807;48.258;12.690;2023-09-19T12:29:30;2.63;;;1.43;;
19341;SDS011;9807;48.258;12.690;2023-09-19T12:31:59;5.27;;;1.40;;
19341;SDS011;9807;48.258;12.690;2023-09-19T12:34:30;4.47;;;1.40;;
19341;SDS011;9807;48.258;12.690;2023-09-19T12:37:12;2.00;;;1.20;;
19341;SDS011;9807;48.258;12.690;2023-09-19T12:39:53;2.03;;;1.23;;
19341;SDS011;9807;48.258;12.690;2023-09-19T12:42:39;1.30;;;1.13;;
19341;SDS011;9807;48.258;12.690;2023-09-19T12:45:06;2.97;;;1.20;;
19341;SDS011;9807;48.258;12.690;2023-09-19T12:47:34;1.43;;;1.07;;
19341;SDS011;9807;48.258;12.690;2023-09-19T12:55:18;1.77;;;1.00;;
19341;SDS011;9807;48.258;12.690;2023-09-19T12:58:21;1.37;;;1.00;;
19341;SDS011;9807;48.258;12.690;2023-09-19T13:00:42;1.20;;;0.70;;
19341;SDS011;9807;48.258;12.690;2023-09-19T13:03:16;1.57;;;1.10;;
19341;SDS011;9807;48.258;12.690;2023-09-19T13:08:19;2.43;;;1.00;;
19341;SDS011;9807;48.258;12.690;2023-09-19T13:11:02;1.03;;;1.00;;
19341;SDS011;9807;48.258;12.690;2023-09-19T13:13:32;1.67;;;1.00;;
19341;SDS011;9807;48.258;12.690;2023-09-19T13:15:58;3.30;;;0.90;;
19341;SDS011;9807;48.258;12.690;2023-09-19T13:18:27;1.13;;;1.03;;
19341;SDS011;9807;48.258;12.690;2023-09-19T13:21:11;1.83;;;1.00;;
19341;SDS011;9807;48.258;12.690;2023-09-19T13:23:40;2.27;;;0.90;;
19341;SDS011;9807;48.258;12.690;2023-09-19T13:26:08;3.60;;;1.07;;
19341;SDS011;9807;48.258;12.690;2023-09-19T13:28:35;1.53;;;0.90;;
19341;SDS011;9807;48.258;12.690;2023-09-19T13:31:02;1.47;;;1.10;;
19341;SDS011;9807;48.258;12.690;2023-09-19T13:33:29;0.90;;;0.90;;
19341;SDS011;9807;48.258;12.690;2023-09-19T13:35:56;3.23;;;0.97;;
19341;SDS011;9807;48.258;12.690;2023-09-19T13:38:22;2.20;;;2.00;;
19341;SDS011;9807;48.258;12.690;2023-09-19T13:40:48;1.00;;;0.90;;
19341;SDS011;9807;48.258;12.690;2023-09-19T13:43:14;1.17;;;0.90;;
19341;SDS011;9807;48.258;12.690;2023-09-19T13:45:41;3.43;;;0.90;;
19341;SDS011;9807;48.258;12.690;2023-09-19T13:48:07;2.80;;;1.00;;
19341;SDS011;9807;48.258;12.690;2023-09-19T13:50:37;3.63;;;1.00;;
19341;SDS011;9807;48.258;12.690;2023-09-19T13:53:07;2.13;;;1.00;;
19341;SDS011;9807;48.258;12.690;2023-09-19T13:55:34;3.07;;;0.93;;
19341;SDS011;9807;48.258;12.690;2023-09-19T13:58:02;1.00;;;1.00;;
19341;SDS011;9807;48.258;12.690;2023-09-19T14:00:31;2.17;;;1.00;;
19341;SDS011;9807;48.258;12.690;2023-09-19T14:02:59;2.20;;;1.30;;
19341;SDS011;9807;48.258;12.690;2023-09-19T14:05:26;2.00;;;1.20;;
19341;SDS011;9807;48.258;12.690;2023-09-19T14:07:53;3.33;;;1.07;;
19341;SDS011;9807;48.258;12.690;2023-09-19T14:10:21;1.03;;;1.03;;
19341;SDS011;9807;48.258;12.690;2023-09-19T14:12:46;1.87;;;1.00;;
19341;SDS011;9807;48.258;12.690;2023-09-19T14:15:12;2.47;;;0.90;;
19341;SDS011;9807;48.258;12.690;2023-09-19T14:17:39;1.67;;;1.07;;
19341;SDS011;9807;48.258;12.690;2023-09-19T14:20:09;1.80;;;0.90;;
19341;SDS011;9807;48.258;12.690;2023-09-19T14:22:35;1.10;;;0.90;;
19341;SDS011;9807;48.258;12.690;2023-09-19T14:25:01;2.80;;;1.00;;
19341;SDS011;9807;48.258;12.690;2023-09-19T14:27:29;3.63;;;1.40;;
19341;SDS011;9807;48.258;12.690;2023-09-19T14:29:56;9.63;;;1.10;;
19341;SDS011;9807;48.258;12.690;2023-09-19T14:32:22;3.20;;;1.30;;
19341;SDS011;9807;48.258;12.690;2023-09-19T14:34:48;1.00;;;0.90;;
19341;SDS011;9807;48.258;12.690;2023-09-19T14:37:14;2.77;;;1.20;;
19341;SDS011;9807;48.258;12.690;2023-09-19T14:39:41;1.27;;;1.00;;
19341;SDS011;9807;48.258;12.690;2023-09-19T14:42:11;1.77;;;0.97;;
19341;SDS011;9807;48.258;12.690;2023-09-19T14:44:37;2.57;;;1.00;;
19341;SDS011;9807;48.258;12.690;2023-09-19T14:47:03;1.37;;;1.07;;
19341;SDS011;9807;48.258;12.690;2023-09-19T14:49:35;1.20;;;1.10;;
19341;SDS011;9807;48.258;12.690;2023-09-19T14:52:06;1.93;;;1.00;;
19341;SDS011;9807;48.258;12.690;2023-09-19T14:54:33;1.30;;;1.13;;
19341;SDS011;9807;48.258;12.690;2023-09-19T14:56:59;4.07;;;1.00;;
19341;SDS011;9807;48.258;12.690;2023-09-19T14:59:33;2.93;;;1.13;;
19341;SDS011;9807;48.258;12.690;2023-09-19T15:02:05;2.03;;;1.40;;
19341;SDS011;9807;48.258;12.690;2023-09-19T15:04:31;2.70;;;1.37;;
19341;SDS011;9807;48.258;12.690;2023-09-19T15:06:58;3.00;;;1.10;;
19341;SDS011;9807;48.258;12.690;2023-09-19T15:09:24;3.60;;;1.40;;
19341;SDS011;9807;48.258;12.690;2023-09-19T15:11:54;3.50;;;1.20;;
19341;SDS011;9807;48.258;12.690;2023-09-19T15:14:21;1.37;;;1.17;;
19341;SDS011;9807;48.258;12.690;2023-09-19T15:16:48;1.40;;;1.00;;
19341;SDS011;9807;48.258;12.690;2023-09-19T15:19:21;4.73;;;1.67;;
19341;SDS011;9807;48.258;12.690;2023-09-19T15:21:47;3.57;;;1.37;;
19341;SDS011;9807;48.258;12.690;2023-09-19T15:24:13;1.57;;;1.10;;
19341;SDS011;9807;48.258;12.690;2023-09-19T15:26:40;1.93;;;1.27;;
19341;SDS011;9807;48.258;12.690;2023-09-19T15:29:09;2.10;;;1.10;;
19341;SDS011;9807;48.258;12.690;2023-09-19T15:31:35;2.23;;;1.33;;
19341;SDS011;9807;48.258;12.690;2023-09-19T15:34:01;2.40;;;1.30;;
19341;SDS011;9807;48.258;12.690;2023-09-19T15:36:27;2.00;;;1.10;;
19341;SDS011;9807;48.258;12.690;2023-09-19T15:41:35;3.47;;;1.20;;
19341;SDS011;9807;48.258;12.690;2023-09-19T15:44:02;4.13;;;1.27;;
19341;SDS011;9807;48.258;12.690;2023-09-19T15:46:32;4.83;;;1.20;;
19341;SDS011;9807;48.258;12.690;2023-09-19T15:49:02;5.57;;;1.17;;
19341;SDS011;9807;48.258;12.690;2023-09-19T15:51:31;2.60;;;1.00;;
19341;SDS011;9807;48.258;12.690;2023-09-19T15:53:57;2.70;;;1.00;;
19341;SDS011;9807;48.258;12.690;2023-09-19T15:56:25;1.70;;;1.10;;
19341;SDS011;9807;48.258;12.690;2023-09-19T15:58:52;2.37;;;1.10;;
19341;SDS011;9807;48.258;12.690;2023-09-19T16:01:18;3.10;;;1.13;;
19341;SDS011;9807;48.258;12.690;2023-09-19T16:03:49;1.23;;;1.00;;
19341;SDS011;9807;48.258;12.690;2023-09-19T16:06:24;1.70;;;0.97;;
19341;SDS011;9807;48.258;12.690;2023-09-19T16:08:59;3.17;;;1.33;;
19341;SDS011;9807;48.258;12.690;2023-09-19T16:11:25;2.43;;;1.40;;
19341;SDS011;9807;48.258;12.690;2023-09-19T16:13:55;4.97;;;1.57;;